sensor_id;sensor_type;location;lat;lon;timestamp;temperature;humidity
7360;DHT22;3720;48.274;7.796;2023-09-19T00:01:47;17.80;99.90
7360;DHT22;3720;48.274;7.796;2023-09-19T00:04:19;17.80;99.90
7360;DHT22;3720;48.274;7.796;2023-09-19T00:06:54;17.90;99.90
7360;DHT22;3720;48.274;7.796;2023-09-19T00:09:26;17.90;99.90
7360;DHT22;3720;48.274;7.796;2023-09-19T00:11:59;17.90;99.90
7360;DHT22;3720;48.274;7.796;2023-09-19T00:14:32;17.90;99.90
7360;DHT22;3720;48.274;7.796;2023-09-19T00:17:06;17.90;99.90
7360;DHT22;3720;48.274;7.796;2023-09-19T00:19:38;17.90;99.90
7360;DHT22;3720;48.274;7.796;2023-09-19T00:22:13;17.90;99.90
7360;DHT22;3720;48.274;7.796;2023-09-19T00:24:46;17.80;99.90
7360;DHT22;3720;48.274;7.796;2023-09-19T00:27:19;17.90;99.90
7360;DHT22;3720;48.274;7.796;2023-09-19T00:29:51;17.90;99.90
7360;DHT22;3720;48.274;7.796;2023-09-19T00:32:23;17.90;99.90
7360;DHT22;3720;48.274;7.796;2023-09-19T00:34:55;17.90;99.90
7360;DHT22;3720;48.274;7.796;2023-09-19T00:37:27;18.00;99.90
7360;DHT22;3720;48.274;7.796;2023-09-19T00:39:58;18.00;99.90
7360;DHT22;3720;48.274;7.796;2023-09-19T00:42:32;17.90;99.90
7360;DHT22;3720;48.274;7.796;2023-09-19T00:45:05;17.90;99.90
7360;DHT22;3720;48.274;7.796;2023-09-19T00:47:37;17.90;99.90
7360;DHT22;3720;48.274;7.796;2023-09-19T00:50:10;17.90;99.90
7360;DHT22;3720;48.274;7.796;2023-09-19T00:52:46;17.90;99.90
7360;DHT22;3720;48.274;7.796;2023-09-19T00:55:20;17.90;99.90
7360;DHT22;3720;48.274;7.796;2023-09-19T00:57:55;17.90;99.90
7360;DHT22;3720;48.274;7.796;2023-09-19T01:00:28;17.90;99.90
7360;DHT22;3720;48.274;7.796;2023-09-19T01:03:03;17.90;99.90
7360;DHT22;3720;48.274;7.796;2023-09-19T01:05:36;17.90;99.90
7360;DHT22;3720;48.274;7.796;2023-09-19T01:08:08;17.90;99.90
7360;DHT22;3720;48.274;7.796;2023-09-19T01:10:49;18.00;99.90
7360;DHT22;3720;48.274;7.796;2023-09-19T01:13:30;17.90;99.90
7360;DHT22;3720;48.274;7.796;2023-09-19T01:16:11;18.00;99.90
7360;DHT22;3720;48.274;7.796;2023-09-19T01:18:55;18.00;99.90
7360;DHT22;3720;48.274;7.796;2023-09-19T01:21:30;17.90;99.90
7360;DHT22;3720;48.274;7.796;2023-09-19T01:24:22;17.90;99.90
7360;DHT22;3720;48.274;7.796;2023-09-19T01:27:12;17.90;99.90
7360;DHT22;3720;48.274;7.796;2023-09-19T01:29:49;17.90;99.90
7360;DHT22;3720;48.274;7.796;2023-09-19T01:32:23;17.90;99.90
7360;DHT22;3720;48.274;7.796;2023-09-19T01:34:57;17.90;99.90
7360;DHT22;3720;48.274;7.796;2023-09-19T01:37:31;18.00;99.90
7360;DHT22;3720;48.274;7.796;2023-09-19T01:40:06;18.00;99.90
7360;DHT22;3720;48.274;7.796;2023-09-19T01:42:50;18.00;99.90
7360;DHT22;3720;48.274;7.796;2023-09-19T01:45:32;18.00;99.90
7360;DHT22;3720;48.274;7.796;2023-09-19T01:48:18;18.00;99.90
7360;DHT22;3720;48.274;7.796;2023-09-19T01:51:01;18.00;99.90
7360;DHT22;3720;48.274;7.796;2023-09-19T01:53:42;18.00;99.90
7360;DHT22;3720;48.274;7.796;2023-09-19T01:56:23;18.00;99.90
7360;DHT22;3720;48.274;7.796;2023-09-19T01:59:01;18.00;99.90
7360;DHT22;3720;48.274;7.796;2023-09-19T02:01:34;18.00;99.90
7360;DHT22;3720;48.274;7.796;2023-09-19T02:04:09;18.10;99.90
7360;DHT22;3720;48.274;7.796;2023-09-19T02:06:41;18.00;99.90
7360;DHT22;3720;48.274;7.796;2023-09-19T02:09:14;18.00;99.90
7360;DHT22;3720;48.274;7.796;2023-09-19T02:11:46;17.90;99.90
7360;DHT22;3720;48.274;7.796;2023-09-19T02:14:18;17.90;99.90
7360;DHT22;3720;48.274;7.796;2023-09-19T02:16:50;17.90;99.90
7360;DHT22;3720;48.274;7.796;2023-09-19T02:19:23;17.80;99.90
7360;DHT22;3720;48.274;7.796;2023-09-19T02:21:55;17.90;99.90
7360;DHT22;3720;48.274;7.796;2023-09-19T02:24:27;17.90;99.90
7360;DHT22;3720;48.274;7.796;2023-09-19T02:26:58;17.80;99.90
7360;DHT22;3720;48.274;7.796;2023-09-19T02:29:34;17.90;99.90
7360;DHT22;3720;48.274;7.796;2023-09-19T02:32:06;17.90;99.90
7360;DHT22;3720;48.274;7.796;2023-09-19T02:34:39;17.90;99.90
7360;DHT22;3720;48.274;7.796;2023-09-19T02:37:12;18.00;99.90
7360;DHT22;3720;48.274;7.796;2023-09-19T02:39:46;17.90;99.90
7360;DHT22;3720;48.274;7.796;2023-09-19T02:42:18;17.90;99.90
7360;DHT22;3720;48.274;7.796;2023-09-19T02:44:50;17.90;99.90
7360;DHT22;3720;48.274;7.796;2023-09-19T02:47:22;17.80;99.90
7360;DHT22;3720;48.274;7.796;2023-09-19T02:49:55;17.80;99.90
7360;DHT22;3720;48.274;7.796;2023-09-19T02:52:27;17.70;99.90
7360;DHT22;3720;48.274;7.796;2023-09-19T02:54:59;17.70;99.90
7360;DHT22;3720;48.274;7.796;2023-09-19T02:57:31;17.80;99.90
7360;DHT22;3720;48.274;7.796;2023-09-19T03:00:05;17.70;99.90
7360;DHT22;3720;48.274;7.796;2023-09-19T03:02:38;17.70;99.90
7360;DHT22;3720;48.274;7.796;2023-09-19T03:05:13;17.70;99.90
7360;DHT22;3720;48.274;7.796;2023-09-19T03:07:46;17.60;99.90
7360;DHT22;3720;48.274;7.796;2023-09-19T03:10:21;17.60;99.90
7360;DHT22;3720;48.274;7.796;2023-09-19T03:12:55;17.60;99.90
7360;DHT22;3720;48.274;7.796;2023-09-19T03:15:27;17.60;99.90
7360;DHT22;3720;48.274;7.796;2023-09-19T03:17:59;17.50;99.90
7360;DHT22;3720;48.274;7.796;2023-09-19T03:20:32;17.50;99.90
7360;DHT22;3720;48.274;7.796;2023-09-19T03:23:04;17.50;99.90
7360;DHT22;3720;48.274;7.796;2023-09-19T03:25:37;17.40;99.90
7360;DHT22;3720;48.274;7.796;2023-09-19T03:28:09;17.40;99.90
7360;DHT22;3720;48.274;7.796;2023-09-19T03:30:41;17.40;99.90
7360;DHT22;3720;48.274;7.796;2023-09-19T03:33:14;17.30;99.90
7360;DHT22;3720;48.274;7.796;2023-09-19T03:35:53;17.40;99.90
7360;DHT22;3720;48.274;7.796;2023-09-19T03:38:25;17.30;99.90
7360;DHT22;3720;48.274;7.796;2023-09-19T03:40:57;17.30;99.90
7360;DHT22;3720;48.274;7.796;2023-09-19T03:43:29;17.40;99.90
7360;DHT22;3720;48.274;7.796;2023-09-19T03:46:02;17.40;99.90
7360;DHT22;3720;48.274;7.796;2023-09-19T03:48:35;17.40;99.90
7360;DHT22;3720;48.274;7.796;2023-09-19T03:51:08;17.50;99.90
7360;DHT22;3720;48.274;7.796;2023-09-19T03:53:41;17.60;99.90
7360;DHT22;3720;48.274;7.796;2023-09-19T03:56:13;17.60;99.90
7360;DHT22;3720;48.274;7.796;2023-09-19T03:58:44;17.60;99.90
7360;DHT22;3720;48.274;7.796;2023-09-19T04:01:16;17.70;99.90
7360;DHT22;3720;48.274;7.796;2023-09-19T04:03:49;17.70;99.90
7360;DHT22;3720;48.274;7.796;2023-09-19T04:06:24;17.70;99.90
7360;DHT22;3720;48.274;7.796;2023-09-19T04:08:57;17.80;99.90
7360;DHT22;3720;48.274;7.796;2023-09-19T04:11:29;18.00;99.90
7360;DHT22;3720;48.274;7.796;2023-09-19T04:14:03;18.00;99.90
7360;DHT22;3720;48.274;7.796;2023-09-19T04:16:35;18.20;99.90
7360;DHT22;3720;48.274;7.796;2023-09-19T04:19:09;18.10;99.90
7360;DHT22;3720;48.274;7.796;2023-09-19T04:21:42;18.10;99.90
7360;DHT22;3720;48.274;7.796;2023-09-19T04:24:15;18.00;99.90
7360;DHT22;3720;48.274;7.796;2023-09-19T04:26:49;18.00;99.90
7360;DHT22;3720;48.274;7.796;2023-09-19T04:29:21;17.90;99.90
7360;DHT22;3720;48.274;7.796;2023-09-19T04:31:53;17.90;99.90
7360;DHT22;3720;48.274;7.796;2023-09-19T04:34:25;17.90;99.90
7360;DHT22;3720;48.274;7.796;2023-09-19T04:36:59;17.80;99.90
7360;DHT22;3720;48.274;7.796;2023-09-19T04:39:31;17.80;99.90
7360;DHT22;3720;48.274;7.796;2023-09-19T04:42:05;17.90;99.90
7360;DHT22;3720;48.274;7.796;2023-09-19T04:44:37;17.90;99.90
7360;DHT22;3720;48.274;7.796;2023-09-19T04:47:09;17.90;99.90
7360;DHT22;3720;48.274;7.796;2023-09-19T04:49:42;18.00;99.90
7360;DHT22;3720;48.274;7.796;2023-09-19T04:52:15;18.00;99.90
7360;DHT22;3720;48.274;7.796;2023-09-19T04:54:47;17.90;99.90
7360;DHT22;3720;48.274;7.796;2023-09-19T04:57:19;17.80;99.90
7360;DHT22;3720;48.274;7.796;2023-09-19T04:59:51;17.80;99.90
7360;DHT22;3720;48.274;7.796;2023-09-19T05:02:23;17.70;99.90
7360;DHT22;3720;48.274;7.796;2023-09-19T05:04:54;17.70;99.90
7360;DHT22;3720;48.274;7.796;2023-09-19T05:07:31;17.70;99.90
7360;DHT22;3720;48.274;7.796;2023-09-19T05:10:05;17.60;99.90
7360;DHT22;3720;48.274;7.796;2023-09-19T05:12:38;17.50;99.90
7360;DHT22;3720;48.274;7.796;2023-09-19T05:15:10;17.50;99.90
7360;DHT22;3720;48.274;7.796;2023-09-19T05:17:47;17.40;99.90
7360;DHT22;3720;48.274;7.796;2023-09-19T05:20:20;17.30;99.90
7360;DHT22;3720;48.274;7.796;2023-09-19T05:23:02;17.30;99.90
7360;DHT22;3720;48.274;7.796;2023-09-19T05:25:37;17.30;99.90
7360;DHT22;3720;48.274;7.796;2023-09-19T05:28:10;17.20;99.90
7360;DHT22;3720;48.274;7.796;2023-09-19T05:30:45;17.20;99.90
7360;DHT22;3720;48.274;7.796;2023-09-19T05:33:18;17.20;99.90
7360;DHT22;3720;48.274;7.796;2023-09-19T05:35:50;17.30;99.90
7360;DHT22;3720;48.274;7.796;2023-09-19T05:38:23;17.30;99.90
7360;DHT22;3720;48.274;7.796;2023-09-19T05:40:57;17.20;99.90
7360;DHT22;3720;48.274;7.796;2023-09-19T05:43:28;17.30;99.90
7360;DHT22;3720;48.274;7.796;2023-09-19T05:46:00;17.30;99.90
7360;DHT22;3720;48.274;7.796;2023-09-19T05:48:32;17.30;99.90
7360;DHT22;3720;48.274;7.796;2023-09-19T05:51:04;17.30;99.90
7360;DHT22;3720;48.274;7.796;2023-09-19T05:53:37;17.30;99.90
7360;DHT22;3720;48.274;7.796;2023-09-19T05:56:09;17.30;99.90
7360;DHT22;3720;48.274;7.796;2023-09-19T05:58:41;17.30;99.90
7360;DHT22;3720;48.274;7.796;2023-09-19T06:01:14;17.30;99.90
7360;DHT22;3720;48.274;7.796;2023-09-19T06:03:46;17.40;99.90
7360;DHT22;3720;48.274;7.796;2023-09-19T06:06:18;17.40;99.90
7360;DHT22;3720;48.274;7.796;2023-09-19T06:08:52;17.40;99.90
7360;DHT22;3720;48.274;7.796;2023-09-19T06:11:24;17.40;99.90
7360;DHT22;3720;48.274;7.796;2023-09-19T06:13:57;17.50;99.90
7360;DHT22;3720;48.274;7.796;2023-09-19T06:16:30;17.50;99.90
7360;DHT22;3720;48.274;7.796;2023-09-19T06:19:03;17.60;99.90
7360;DHT22;3720;48.274;7.796;2023-09-19T06:21:37;17.50;99.90
7360;DHT22;3720;48.274;7.796;2023-09-19T06:24:10;17.60;99.90
7360;DHT22;3720;48.274;7.796;2023-09-19T06:26:42;17.60;99.90
7360;DHT22;3720;48.274;7.796;2023-09-19T06:29:14;17.70;99.90
7360;DHT22;3720;48.274;7.796;2023-09-19T06:31:46;17.70;99.90
7360;DHT22;3720;48.274;7.796;2023-09-19T06:34:18;17.80;99.90
7360;DHT22;3720;48.274;7.796;2023-09-19T06:36:51;17.80;99.90
7360;DHT22;3720;48.274;7.796;2023-09-19T06:39:27;17.80;99.90
7360;DHT22;3720;48.274;7.796;2023-09-19T06:41:59;17.80;99.90
7360;DHT22;3720;48.274;7.796;2023-09-19T06:44:32;17.80;99.90
7360;DHT22;3720;48.274;7.796;2023-09-19T06:47:04;17.70;99.90
7360;DHT22;3720;48.274;7.796;2023-09-19T06:49:37;17.80;99.90
7360;DHT22;3720;48.274;7.796;2023-09-19T06:52:09;17.80;99.90
7360;DHT22;3720;48.274;7.796;2023-09-19T06:54:42;17.80;99.90
7360;DHT22;3720;48.274;7.796;2023-09-19T06:57:14;17.80;99.90
7360;DHT22;3720;48.274;7.796;2023-09-19T06:59:46;17.80;99.90
7360;DHT22;3720;48.274;7.796;2023-09-19T07:02:17;17.80;99.90
7360;DHT22;3720;48.274;7.796;2023-09-19T07:04:50;17.80;99.90
7360;DHT22;3720;48.274;7.796;2023-09-19T07:07:22;17.80;99.90
7360;DHT22;3720;48.274;7.796;2023-09-19T07:09:55;17.90;99.90
7360;DHT22;3720;48.274;7.796;2023-09-19T07:12:27;18.00;99.90
7360;DHT22;3720;48.274;7.796;2023-09-19T07:14:59;18.10;99.90
7360;DHT22;3720;48.274;7.796;2023-09-19T07:17:31;18.20;99.90
7360;DHT22;3720;48.274;7.796;2023-09-19T07:20:04;18.20;99.90
7360;DHT22;3720;48.274;7.796;2023-09-19T07:22:38;18.40;99.90
7360;DHT22;3720;48.274;7.796;2023-09-19T07:25:11;18.40;99.90
7360;DHT22;3720;48.274;7.796;2023-09-19T07:27:44;18.50;99.90
7360;DHT22;3720;48.274;7.796;2023-09-19T07:30:16;18.50;99.90
7360;DHT22;3720;48.274;7.796;2023-09-19T07:32:48;18.70;99.90
7360;DHT22;3720;48.274;7.796;2023-09-19T07:35:20;18.80;99.90
7360;DHT22;3720;48.274;7.796;2023-09-19T07:37:52;18.80;99.90
7360;DHT22;3720;48.274;7.796;2023-09-19T07:40:25;18.90;99.90
7360;DHT22;3720;48.274;7.796;2023-09-19T07:42:57;18.90;99.90
7360;DHT22;3720;48.274;7.796;2023-09-19T07:45:31;18.90;99.90
7360;DHT22;3720;48.274;7.796;2023-09-19T07:48:04;19.00;99.90
7360;DHT22;3720;48.274;7.796;2023-09-19T07:50:36;19.10;99.90
7360;DHT22;3720;48.274;7.796;2023-09-19T07:53:08;19.30;99.90
7360;DHT22;3720;48.274;7.796;2023-09-19T07:55:42;19.30;99.90
7360;DHT22;3720;48.274;7.796;2023-09-19T07:58:18;19.50;99.90
7360;DHT22;3720;48.274;7.796;2023-09-19T08:00:50;19.50;99.90
7360;DHT22;3720;48.274;7.796;2023-09-19T08:03:22;19.50;99.90
7360;DHT22;3720;48.274;7.796;2023-09-19T08:05:55;19.60;99.90
7360;DHT22;3720;48.274;7.796;2023-09-19T08:08:28;19.70;99.90
7360;DHT22;3720;48.274;7.796;2023-09-19T08:11:01;19.70;99.90
7360;DHT22;3720;48.274;7.796;2023-09-19T08:13:33;19.80;99.90
7360;DHT22;3720;48.274;7.796;2023-09-19T08:16:05;19.80;99.90
7360;DHT22;3720;48.274;7.796;2023-09-19T08:18:37;19.80;99.90
7360;DHT22;3720;48.274;7.796;2023-09-19T08:21:11;19.90;99.90
7360;DHT22;3720;48.274;7.796;2023-09-19T08:23:45;20.00;99.90
7360;DHT22;3720;48.274;7.796;2023-09-19T08:26:18;20.10;99.90
7360;DHT22;3720;48.274;7.796;2023-09-19T08:28:50;20.30;99.90
7360;DHT22;3720;48.274;7.796;2023-09-19T08:31:23;20.40;99.90
7360;DHT22;3720;48.274;7.796;2023-09-19T08:33:57;20.50;99.90
7360;DHT22;3720;48.274;7.796;2023-09-19T08:36:28;20.60;99.90
7360;DHT22;3720;48.274;7.796;2023-09-19T08:39:01;20.60;99.90
7360;DHT22;3720;48.274;7.796;2023-09-19T08:41:34;20.60;99.90
7360;DHT22;3720;48.274;7.796;2023-09-19T08:44:06;20.70;99.90
7360;DHT22;3720;48.274;7.796;2023-09-19T08:46:41;20.70;99.90
7360;DHT22;3720;48.274;7.796;2023-09-19T08:49:22;20.80;99.90
7360;DHT22;3720;48.274;7.796;2023-09-19T08:52:05;20.80;99.90
7360;DHT22;3720;48.274;7.796;2023-09-19T08:54:40;20.70;99.90
7360;DHT22;3720;48.274;7.796;2023-09-19T08:57:17;20.80;99.90
7360;DHT22;3720;48.274;7.796;2023-09-19T08:59:52;20.90;99.90
7360;DHT22;3720;48.274;7.796;2023-09-19T09:02:25;20.90;99.90
7360;DHT22;3720;48.274;7.796;2023-09-19T09:04:58;20.90;99.90
7360;DHT22;3720;48.274;7.796;2023-09-19T09:07:31;20.90;99.90
7360;DHT22;3720;48.274;7.796;2023-09-19T09:10:06;21.00;99.90
7360;DHT22;3720;48.274;7.796;2023-09-19T09:12:40;21.00;99.90
7360;DHT22;3720;48.274;7.796;2023-09-19T09:15:14;21.00;99.90
7360;DHT22;3720;48.274;7.796;2023-09-19T09:17:47;21.00;99.90
7360;DHT22;3720;48.274;7.796;2023-09-19T09:20:20;21.10;99.90
7360;DHT22;3720;48.274;7.796;2023-09-19T09:22:53;21.20;99.90
7360;DHT22;3720;48.274;7.796;2023-09-19T09:25:47;21.20;99.90
7360;DHT22;3720;48.274;7.796;2023-09-19T09:28:21;21.20;99.90
7360;DHT22;3720;48.274;7.796;2023-09-19T09:30:53;21.20;99.90
7360;DHT22;3720;48.274;7.796;2023-09-19T09:33:25;21.40;99.90
7360;DHT22;3720;48.274;7.796;2023-09-19T09:36:00;21.60;99.90
7360;DHT22;3720;48.274;7.796;2023-09-19T09:38:43;21.70;99.90
7360;DHT22;3720;48.274;7.796;2023-09-19T09:41:16;21.80;99.90
7360;DHT22;3720;48.274;7.796;2023-09-19T09:44:12;21.80;99.90
7360;DHT22;3720;48.274;7.796;2023-09-19T09:46:47;21.90;99.90
7360;DHT22;3720;48.274;7.796;2023-09-19T09:49:49;22.20;99.90
7360;DHT22;3720;48.274;7.796;2023-09-19T09:52:25;22.20;99.90
7360;DHT22;3720;48.274;7.796;2023-09-19T09:55:00;22.00;99.90
7360;DHT22;3720;48.274;7.796;2023-09-19T09:57:36;21.70;99.90
7360;DHT22;3720;48.274;7.796;2023-09-19T10:00:13;21.60;99.90
7360;DHT22;3720;48.274;7.796;2023-09-19T10:02:50;21.60;99.90
7360;DHT22;3720;48.274;7.796;2023-09-19T10:05:22;21.50;99.90
7360;DHT22;3720;48.274;7.796;2023-09-19T10:08:10;21.60;99.90
7360;DHT22;3720;48.274;7.796;2023-09-19T10:10:43;21.80;99.90
7360;DHT22;3720;48.274;7.796;2023-09-19T10:13:25;22.10;99.90
7360;DHT22;3720;48.274;7.796;2023-09-19T10:16:06;22.20;99.90
7360;DHT22;3720;48.274;7.796;2023-09-19T10:18:42;22.40;99.90
7360;DHT22;3720;48.274;7.796;2023-09-19T10:21:14;22.60;99.90
7360;DHT22;3720;48.274;7.796;2023-09-19T10:23:46;22.80;99.90
7360;DHT22;3720;48.274;7.796;2023-09-19T10:26:17;23.00;99.90
7360;DHT22;3720;48.274;7.796;2023-09-19T10:28:52;23.30;99.90
7360;DHT22;3720;48.274;7.796;2023-09-19T10:31:28;23.60;99.90
7360;DHT22;3720;48.274;7.796;2023-09-19T10:34:02;23.40;99.90
7360;DHT22;3720;48.274;7.796;2023-09-19T10:36:35;23.10;99.90
7360;DHT22;3720;48.274;7.796;2023-09-19T10:39:08;22.90;99.90
7360;DHT22;3720;48.274;7.796;2023-09-19T10:41:42;23.00;99.90
7360;DHT22;3720;48.274;7.796;2023-09-19T10:44:19;23.30;99.90
7360;DHT22;3720;48.274;7.796;2023-09-19T10:46:54;23.60;99.90
7360;DHT22;3720;48.274;7.796;2023-09-19T10:49:27;24.00;99.90
7360;DHT22;3720;48.274;7.796;2023-09-19T10:51:59;24.30;99.90
7360;DHT22;3720;48.274;7.796;2023-09-19T10:54:34;24.50;99.90
7360;DHT22;3720;48.274;7.796;2023-09-19T10:57:09;24.40;99.90
7360;DHT22;3720;48.274;7.796;2023-09-19T11:00:00;24.20;99.90
7360;DHT22;3720;48.274;7.796;2023-09-19T11:03:18;24.00;99.90
7360;DHT22;3720;48.274;7.796;2023-09-19T11:06:09;24.20;99.90
7360;DHT22;3720;48.274;7.796;2023-09-19T11:08:55;24.40;99.90
7360;DHT22;3720;48.274;7.796;2023-09-19T11:11:47;24.70;99.90
7360;DHT22;3720;48.274;7.796;2023-09-19T11:14:30;25.00;99.90
7360;DHT22;3720;48.274;7.796;2023-09-19T11:17:31;25.20;99.90
7360;DHT22;3720;48.274;7.796;2023-09-19T11:20:25;25.10;99.90
7360;DHT22;3720;48.274;7.796;2023-09-19T11:23:23;25.50;99.90
7360;DHT22;3720;48.274;7.796;2023-09-19T11:25:55;25.50;99.90
7360;DHT22;3720;48.274;7.796;2023-09-19T11:28:31;25.60;99.90
7360;DHT22;3720;48.274;7.796;2023-09-19T11:34:46;26.40;99.90
7360;DHT22;3720;48.274;7.796;2023-09-19T11:40:34;26.60;99.90
7360;DHT22;3720;48.274;7.796;2023-09-19T11:43:28;26.70;99.90
7360;DHT22;3720;48.274;7.796;2023-09-19T11:46:02;27.10;99.90
7360;DHT22;3720;48.274;7.796;2023-09-19T11:48:35;27.20;99.90
7360;DHT22;3720;48.274;7.796;2023-09-19T11:51:13;26.70;99.90
7360;DHT22;3720;48.274;7.796;2023-09-19T11:53:50;26.70;99.90
7360;DHT22;3720;48.274;7.796;2023-09-19T11:56:25;27.00;99.90
7360;DHT22;3720;48.274;7.796;2023-09-19T11:58:58;27.00;99.90
7360;DHT22;3720;48.274;7.796;2023-09-19T12:01:31;27.10;99.90
7360;DHT22;3720;48.274;7.796;2023-09-19T12:04:04;27.20;99.90
7360;DHT22;3720;48.274;7.796;2023-09-19T12:06:36;27.30;99.90
7360;DHT22;3720;48.274;7.796;2023-09-19T12:09:12;27.10;99.30
7360;DHT22;3720;48.274;7.796;2023-09-19T12:11:48;27.20;99.90
7360;DHT22;3720;48.274;7.796;2023-09-19T12:14:22;27.00;99.30
7360;DHT22;3720;48.274;7.796;2023-09-19T12:16:57;26.50;99.90
7360;DHT22;3720;48.274;7.796;2023-09-19T12:19:31;26.10;99.40
7360;DHT22;3720;48.274;7.796;2023-09-19T12:22:03;25.90;99.70
7360;DHT22;3720;48.274;7.796;2023-09-19T12:24:36;25.80;99.90
7360;DHT22;3720;48.274;7.796;2023-09-19T12:27:12;26.30;99.90
7360;DHT22;3720;48.274;7.796;2023-09-19T12:29:46;26.80;99.90
7360;DHT22;3720;48.274;7.796;2023-09-19T12:32:33;27.00;98.10
7360;DHT22;3720;48.274;7.796;2023-09-19T12:35:06;26.90;98.50
7360;DHT22;3720;48.274;7.796;2023-09-19T12:37:43;26.70;97.70
7360;DHT22;3720;48.274;7.796;2023-09-19T12:40:28;26.90;98.70
7360;DHT22;3720;48.274;7.796;2023-09-19T12:43:07;27.10;96.60
7360;DHT22;3720;48.274;7.796;2023-09-19T12:45:42;27.20;96.50
7360;DHT22;3720;48.274;7.796;2023-09-19T12:48:19;27.10;95.00
7360;DHT22;3720;48.274;7.796;2023-09-19T12:51:04;27.10;95.40
7360;DHT22;3720;48.274;7.796;2023-09-19T12:53:39;27.20;96.00
7360;DHT22;3720;48.274;7.796;2023-09-19T12:56:14;27.10;94.90
7360;DHT22;3720;48.274;7.796;2023-09-19T12:58:51;26.80;95.70
7360;DHT22;3720;48.274;7.796;2023-09-19T13:01:25;26.70;94.80
7360;DHT22;3720;48.274;7.796;2023-09-19T13:04:17;26.60;96.10
7360;DHT22;3720;48.274;7.796;2023-09-19T13:06:56;27.00;95.90
7360;DHT22;3720;48.274;7.796;2023-09-19T13:09:31;27.10;94.50
7360;DHT22;3720;48.274;7.796;2023-09-19T13:12:05;26.80;94.00
7360;DHT22;3720;48.274;7.796;2023-09-19T13:15:08;26.80;96.20
7360;DHT22;3720;48.274;7.796;2023-09-19T13:17:44;27.10;96.30
7360;DHT22;3720;48.274;7.796;2023-09-19T13:20:23;27.00;95.00
7360;DHT22;3720;48.274;7.796;2023-09-19T13:22:58;27.00;95.50
7360;DHT22;3720;48.274;7.796;2023-09-19T13:25:38;27.10;95.10
7360;DHT22;3720;48.274;7.796;2023-09-19T13:28:10;27.00;94.90
7360;DHT22;3720;48.274;7.796;2023-09-19T13:30:43;26.70;95.30
7360;DHT22;3720;48.274;7.796;2023-09-19T13:33:16;26.70;94.90
7360;DHT22;3720;48.274;7.796;2023-09-19T13:35:51;27.00;96.00
7360;DHT22;3720;48.274;7.796;2023-09-19T13:38:23;27.10;95.80
7360;DHT22;3720;48.274;7.796;2023-09-19T13:40:55;27.20;94.60
7360;DHT22;3720;48.274;7.796;2023-09-19T13:43:27;27.10;94.30
7360;DHT22;3720;48.274;7.796;2023-09-19T13:46:00;27.20;94.10
7360;DHT22;3720;48.274;7.796;2023-09-19T13:48:32;27.00;93.80
7360;DHT22;3720;48.274;7.796;2023-09-19T13:51:05;27.10;95.60
7360;DHT22;3720;48.274;7.796;2023-09-19T13:53:37;27.20;93.40
7360;DHT22;3720;48.274;7.796;2023-09-19T13:56:09;27.00;93.70
7360;DHT22;3720;48.274;7.796;2023-09-19T13:58:41;27.10;94.60
7360;DHT22;3720;48.274;7.796;2023-09-19T14:01:14;27.30;94.50
7360;DHT22;3720;48.274;7.796;2023-09-19T14:03:46;27.20;94.20
7360;DHT22;3720;48.274;7.796;2023-09-19T14:06:21;27.20;93.60
7360;DHT22;3720;48.274;7.796;2023-09-19T14:08:53;27.00;93.10
7360;DHT22;3720;48.274;7.796;2023-09-19T14:11:25;26.80;93.70
7360;DHT22;3720;48.274;7.796;2023-09-19T14:13:57;27.00;95.00
7360;DHT22;3720;48.274;7.796;2023-09-19T14:16:30;27.10;94.30
7360;DHT22;3720;48.274;7.796;2023-09-19T14:19:04;27.10;92.30
7360;DHT22;3720;48.274;7.796;2023-09-19T14:21:36;27.00;91.80
7360;DHT22;3720;48.274;7.796;2023-09-19T14:24:09;27.10;93.50
7360;DHT22;3720;48.274;7.796;2023-09-19T14:26:42;27.20;93.20
7360;DHT22;3720;48.274;7.796;2023-09-19T14:29:14;27.30;93.20
7360;DHT22;3720;48.274;7.796;2023-09-19T14:31:47;27.30;92.70
7360;DHT22;3720;48.274;7.796;2023-09-19T14:34:20;27.30;91.20
7360;DHT22;3720;48.274;7.796;2023-09-19T14:36:52;27.10;91.10
7360;DHT22;3720;48.274;7.796;2023-09-19T14:39:25;27.00;92.10
7360;DHT22;3720;48.274;7.796;2023-09-19T14:41:57;26.70;91.50
7360;DHT22;3720;48.274;7.796;2023-09-19T14:44:29;26.70;93.00
7360;DHT22;3720;48.274;7.796;2023-09-19T14:47:03;26.70;92.40
7360;DHT22;3720;48.274;7.796;2023-09-19T14:49:36;26.80;93.60
7360;DHT22;3720;48.274;7.796;2023-09-19T14:52:09;27.00;92.60
7360;DHT22;3720;48.274;7.796;2023-09-19T14:54:42;27.00;92.20
7360;DHT22;3720;48.274;7.796;2023-09-19T14:57:14;27.20;92.40
7360;DHT22;3720;48.274;7.796;2023-09-19T14:59:46;27.40;92.10
7360;DHT22;3720;48.274;7.796;2023-09-19T15:02:19;27.50;91.00
7360;DHT22;3720;48.274;7.796;2023-09-19T15:04:52;27.70;91.90
7360;DHT22;3720;48.274;7.796;2023-09-19T15:07:23;28.00;91.50
7360;DHT22;3720;48.274;7.796;2023-09-19T15:09:57;28.10;91.00
7360;DHT22;3720;48.274;7.796;2023-09-19T15:12:29;28.00;90.70
7360;DHT22;3720;48.274;7.796;2023-09-19T15:15:01;27.60;89.10
7360;DHT22;3720;48.274;7.796;2023-09-19T15:17:35;27.00;90.00
7360;DHT22;3720;48.274;7.796;2023-09-19T15:20:08;26.50;91.00
7360;DHT22;3720;48.274;7.796;2023-09-19T15:22:44;26.00;92.30
7360;DHT22;3720;48.274;7.796;2023-09-19T15:25:16;25.70;93.30
7360;DHT22;3720;48.274;7.796;2023-09-19T15:27:48;25.60;93.00
7360;DHT22;3720;48.274;7.796;2023-09-19T15:30:20;25.60;93.20
7360;DHT22;3720;48.274;7.796;2023-09-19T15:32:56;25.60;94.50
7360;DHT22;3720;48.274;7.796;2023-09-19T15:35:28;25.80;93.30
7360;DHT22;3720;48.274;7.796;2023-09-19T15:38:00;25.90;93.80
7360;DHT22;3720;48.274;7.796;2023-09-19T15:40:32;25.70;93.10
7360;DHT22;3720;48.274;7.796;2023-09-19T15:43:03;25.70;94.10
7360;DHT22;3720;48.274;7.796;2023-09-19T15:45:35;25.50;95.00
7360;DHT22;3720;48.274;7.796;2023-09-19T15:48:09;25.40;95.50
7360;DHT22;3720;48.274;7.796;2023-09-19T15:50:40;25.50;95.40
7360;DHT22;3720;48.274;7.796;2023-09-19T15:53:14;25.50;95.00
7360;DHT22;3720;48.274;7.796;2023-09-19T15:55:47;25.70;94.80
7360;DHT22;3720;48.274;7.796;2023-09-19T15:58:19;25.80;94.00
7360;DHT22;3720;48.274;7.796;2023-09-19T16:00:50;25.70;94.60
7360;DHT22;3720;48.274;7.796;2023-09-19T16:03:24;25.70;94.60
7360;DHT22;3720;48.274;7.796;2023-09-19T16:05:57;25.70;95.20
7360;DHT22;3720;48.274;7.796;2023-09-19T16:08:29;25.80;94.90
7360;DHT22;3720;48.274;7.796;2023-09-19T16:11:01;25.90;94.60
7360;DHT22;3720;48.274;7.796;2023-09-19T16:13:33;26.00;95.10
7360;DHT22;3720;48.274;7.796;2023-09-19T16:16:05;26.00;93.40
7360;DHT22;3720;48.274;7.796;2023-09-19T16:18:40;26.00;93.70
7360;DHT22;3720;48.274;7.796;2023-09-19T16:21:11;25.90;93.90
7360;DHT22;3720;48.274;7.796;2023-09-19T16:23:45;26.10;93.90
7360;DHT22;3720;48.274;7.796;2023-09-19T16:26:18;26.10;93.60
7360;DHT22;3720;48.274;7.796;2023-09-19T16:28:52;26.00;93.60
7360;DHT22;3720;48.274;7.796;2023-09-19T16:31:24;25.90;94.80
7360;DHT22;3720;48.274;7.796;2023-09-19T16:33:59;25.80;95.00
7360;DHT22;3720;48.274;7.796;2023-09-19T16:36:31;25.70;94.50
7360;DHT22;3720;48.274;7.796;2023-09-19T16:39:04;25.70;94.80
7360;DHT22;3720;48.274;7.796;2023-09-19T16:41:38;25.60;95.20
7360;DHT22;3720;48.274;7.796;2023-09-19T16:44:10;25.50;95.10
7360;DHT22;3720;48.274;7.796;2023-09-19T16:46:42;25.50;95.90
7360;DHT22;3720;48.274;7.796;2023-09-19T16:49:16;25.50;95.70
7360;DHT22;3720;48.274;7.796;2023-09-19T16:51:47;25.50;95.20
7360;DHT22;3720;48.274;7.796;2023-09-19T16:54:19;25.50;94.70
7360;DHT22;3720;48.274;7.796;2023-09-19T16:56:51;25.50;94.10